sensor_id;sensor_type;location;lat;lon;timestamp;P1;durP1;ratioP1;P2;durP2;ratioP2
9042;SDS011;4556;49.150;8.808;2023-07-13T00:01:44;2.17;;;1.30;;
9042;SDS011;4556;49.150;8.808;2023-07-13T00:04:14;4.43;;;1.57;;
9042;SDS011;4556;49.150;8.808;2023-07-13T00:06:43;2.03;;;1.50;;
9042;SDS011;4556;49.150;8.808;2023-07-13T00:09:11;2.60;;;1.60;;
9042;SDS011;4556;49.150;8.808;2023-07-13T00:11:38;2.60;;;1.67;;
9042;SDS011;4556;49.150;8.808;2023-07-13T00:14:06;2.37;;;1.20;;
9042;SDS011;4556;49.150;8.808;2023-07-13T00:16:33;3.57;;;1.60;;
9042;SDS011;4556;49.150;8.808;2023-07-13T00:19:00;2.97;;;1.33;;
9042;SDS011;4556;49.150;8.808;2023-07-13T00:21:27;2.00;;;1.43;;
9042;SDS011;4556;49.150;8.808;2023-07-13T00:23:55;3.03;;;1.60;;
9042;SDS011;4556;49.150;8.808;2023-07-13T00:26:22;3.63;;;1.33;;
9042;SDS011;4556;49.150;8.808;2023-07-13T00:28:49;2.17;;;1.37;;
9042;SDS011;4556;49.150;8.808;2023-07-13T00:31:16;3.43;;;1.40;;
9042;SDS011;4556;49.150;8.808;2023-07-13T00:33:43;2.37;;;1.47;;
9042;SDS011;4556;49.150;8.808;2023-07-13T00:36:10;3.53;;;1.30;;
9042;SDS011;4556;49.150;8.808;2023-07-13T00:38:38;1.93;;;1.27;;
9042;SDS011;4556;49.150;8.808;2023-07-13T00:41:06;3.70;;;1.50;;
9042;SDS011;4556;49.150;8.808;2023-07-13T00:43:33;1.57;;;1.23;;
9042;SDS011;4556;49.150;8.808;2023-07-13T00:46:18;1.70;;;1.40;;
9042;SDS011;4556;49.150;8.808;2023-07-13T00:48:48;3.07;;;1.60;;
9042;SDS011;4556;49.150;8.808;2023-07-13T00:51:17;2.20;;;1.50;;
9042;SDS011;4556;49.150;8.808;2023-07-13T00:53:47;3.07;;;1.53;;
9042;SDS011;4556;49.150;8.808;2023-07-13T00:56:15;3.97;;;1.77;;
9042;SDS011;4556;49.150;8.808;2023-07-13T00:58:42;2.17;;;1.60;;
9042;SDS011;4556;49.150;8.808;2023-07-13T01:01:09;2.27;;;1.80;;
9042;SDS011;4556;49.150;8.808;2023-07-13T01:03:38;3.20;;;1.80;;
9042;SDS011;4556;49.150;8.808;2023-07-13T01:06:05;4.87;;;1.40;;
9042;SDS011;4556;49.150;8.808;2023-07-13T01:08:33;2.97;;;1.40;;
9042;SDS011;4556;49.150;8.808;2023-07-13T01:11:00;2.93;;;1.83;;
9042;SDS011;4556;49.150;8.808;2023-07-13T01:13:28;6.37;;;1.57;;
9042;SDS011;4556;49.150;8.808;2023-07-13T01:15:56;3.80;;;1.50;;
9042;SDS011;4556;49.150;8.808;2023-07-13T01:18:28;2.97;;;1.70;;
9042;SDS011;4556;49.150;8.808;2023-07-13T01:20:57;2.43;;;1.53;;
9042;SDS011;4556;49.150;8.808;2023-07-13T01:23:26;2.17;;;1.40;;
9042;SDS011;4556;49.150;8.808;2023-07-13T01:25:54;4.60;;;1.80;;
9042;SDS011;4556;49.150;8.808;2023-07-13T01:28:23;4.33;;;1.60;;
9042;SDS011;4556;49.150;8.808;2023-07-13T01:30:52;4.03;;;1.60;;
9042;SDS011;4556;49.150;8.808;2023-07-13T01:33:20;3.20;;;1.70;;
9042;SDS011;4556;49.150;8.808;2023-07-13T01:35:47;3.60;;;1.60;;
9042;SDS011;4556;49.150;8.808;2023-07-13T01:38:18;2.53;;;1.63;;
9042;SDS011;4556;49.150;8.808;2023-07-13T01:40:47;2.13;;;1.50;;
9042;SDS011;4556;49.150;8.808;2023-07-13T01:43:14;1.63;;;1.20;;
9042;SDS011;4556;49.150;8.808;2023-07-13T01:45:41;2.60;;;1.37;;
9042;SDS011;4556;49.150;8.808;2023-07-13T01:48:09;2.47;;;1.30;;
9042;SDS011;4556;49.150;8.808;2023-07-13T01:50:35;3.70;;;1.53;;
9042;SDS011;4556;49.150;8.808;2023-07-13T01:53:03;2.23;;;1.63;;
9042;SDS011;4556;49.150;8.808;2023-07-13T01:55:31;1.47;;;1.37;;
9042;SDS011;4556;49.150;8.808;2023-07-13T01:57:59;3.20;;;1.50;;
9042;SDS011;4556;49.150;8.808;2023-07-13T02:00:26;1.67;;;1.53;;
9042;SDS011;4556;49.150;8.808;2023-07-13T02:02:53;2.90;;;1.50;;
9042;SDS011;4556;49.150;8.808;2023-07-13T02:05:20;3.03;;;1.57;;
9042;SDS011;4556;49.150;8.808;2023-07-13T02:07:47;3.27;;;1.47;;
9042;SDS011;4556;49.150;8.808;2023-07-13T02:10:14;3.03;;;1.60;;
9042;SDS011;4556;49.150;8.808;2023-07-13T02:12:43;5.07;;;1.63;;
9042;SDS011;4556;49.150;8.808;2023-07-13T02:15:10;5.37;;;1.70;;
9042;SDS011;4556;49.150;8.808;2023-07-13T02:17:37;1.87;;;1.37;;
9042;SDS011;4556;49.150;8.808;2023-07-13T02:20:04;3.33;;;1.63;;
9042;SDS011;4556;49.150;8.808;2023-07-13T02:22:32;4.27;;;1.57;;
9042;SDS011;4556;49.150;8.808;2023-07-13T02:24:59;2.33;;;1.70;;
9042;SDS011;4556;49.150;8.808;2023-07-13T02:27:26;2.40;;;1.40;;
9042;SDS011;4556;49.150;8.808;2023-07-13T02:29:54;3.77;;;1.50;;
9042;SDS011;4556;49.150;8.808;2023-07-13T02:32:21;4.40;;;1.90;;
9042;SDS011;4556;49.150;8.808;2023-07-13T02:34:50;2.20;;;1.70;;
9042;SDS011;4556;49.150;8.808;2023-07-13T02:37:17;4.37;;;1.87;;
9042;SDS011;4556;49.150;8.808;2023-07-13T02:39:44;2.33;;;1.70;;
9042;SDS011;4556;49.150;8.808;2023-07-13T02:42:11;3.23;;;1.80;;
9042;SDS011;4556;49.150;8.808;2023-07-13T02:44:38;2.87;;;1.80;;
9042;SDS011;4556;49.150;8.808;2023-07-13T02:47:06;2.17;;;1.57;;
9042;SDS011;4556;49.150;8.808;2023-07-13T02:49:33;2.70;;;1.87;;
9042;SDS011;4556;49.150;8.808;2023-07-13T02:52:00;2.70;;;1.80;;
9042;SDS011;4556;49.150;8.808;2023-07-13T02:54:27;2.67;;;1.63;;
9042;SDS011;4556;49.150;8.808;2023-07-13T02:56:54;3.30;;;1.97;;
9042;SDS011;4556;49.150;8.808;2023-07-13T02:59:21;2.07;;;1.50;;
9042;SDS011;4556;49.150;8.808;2023-07-13T03:01:48;4.40;;;2.03;;
9042;SDS011;4556;49.150;8.808;2023-07-13T03:04:16;2.47;;;1.50;;
9042;SDS011;4556;49.150;8.808;2023-07-13T03:06:44;3.00;;;1.50;;
9042;SDS011;4556;49.150;8.808;2023-07-13T03:09:11;4.03;;;1.80;;
9042;SDS011;4556;49.150;8.808;2023-07-13T03:11:38;4.67;;;1.80;;
9042;SDS011;4556;49.150;8.808;2023-07-13T03:14:06;4.33;;;1.70;;
9042;SDS011;4556;49.150;8.808;2023-07-13T03:16:33;3.33;;;1.57;;
9042;SDS011;4556;49.150;8.808;2023-07-13T03:19:01;2.63;;;1.40;;
9042;SDS011;4556;49.150;8.808;2023-07-13T03:21:29;3.83;;;1.80;;
9042;SDS011;4556;49.150;8.808;2023-07-13T03:23:56;2.67;;;1.93;;
9042;SDS011;4556;49.150;8.808;2023-07-13T03:26:23;3.97;;;1.90;;
9042;SDS011;4556;49.150;8.808;2023-07-13T03:28:50;8.80;;;2.17;;
9042;SDS011;4556;49.150;8.808;2023-07-13T03:31:18;2.97;;;2.10;;
9042;SDS011;4556;49.150;8.808;2023-07-13T03:33:47;2.93;;;1.90;;
9042;SDS011;4556;49.150;8.808;2023-07-13T03:36:15;3.77;;;1.93;;
9042;SDS011;4556;49.150;8.808;2023-07-13T03:38:45;3.17;;;1.90;;
9042;SDS011;4556;49.150;8.808;2023-07-13T03:41:13;4.97;;;2.13;;
9042;SDS011;4556;49.150;8.808;2023-07-13T03:43:40;4.03;;;2.00;;
9042;SDS011;4556;49.150;8.808;2023-07-13T03:46:07;3.40;;;2.00;;
9042;SDS011;4556;49.150;8.808;2023-07-13T03:48:34;2.70;;;1.90;;
9042;SDS011;4556;49.150;8.808;2023-07-13T03:51:01;2.17;;;1.97;;
9042;SDS011;4556;49.150;8.808;2023-07-13T03:53:28;6.27;;;2.37;;
9042;SDS011;4556;49.150;8.808;2023-07-13T03:55:57;3.10;;;2.27;;
9042;SDS011;4556;49.150;8.808;2023-07-13T03:58:25;3.37;;;2.23;;
9042;SDS011;4556;49.150;8.808;2023-07-13T04:00:54;2.93;;;2.30;;
9042;SDS011;4556;49.150;8.808;2023-07-13T04:03:22;2.83;;;2.30;;
9042;SDS011;4556;49.150;8.808;2023-07-13T04:05:50;5.33;;;2.53;;
9042;SDS011;4556;49.150;8.808;2023-07-13T04:08:17;4.00;;;2.03;;
9042;SDS011;4556;49.150;8.808;2023-07-13T04:10:44;4.93;;;2.40;;
9042;SDS011;4556;49.150;8.808;2023-07-13T04:13:12;3.17;;;2.00;;
9042;SDS011;4556;49.150;8.808;2023-07-13T04:15:40;3.40;;;2.10;;
9042;SDS011;4556;49.150;8.808;2023-07-13T04:18:06;3.70;;;2.60;;
9042;SDS011;4556;49.150;8.808;2023-07-13T04:20:34;2.30;;;2.10;;
9042;SDS011;4556;49.150;8.808;2023-07-13T04:23:01;5.10;;;2.20;;
9042;SDS011;4556;49.150;8.808;2023-07-13T04:25:28;7.10;;;2.30;;
9042;SDS011;4556;49.150;8.808;2023-07-13T04:27:55;2.90;;;2.10;;
9042;SDS011;4556;49.150;8.808;2023-07-13T04:30:24;4.90;;;2.40;;
9042;SDS011;4556;49.150;8.808;2023-07-13T04:32:51;4.73;;;2.40;;
9042;SDS011;4556;49.150;8.808;2023-07-13T04:35:19;4.23;;;2.13;;
9042;SDS011;4556;49.150;8.808;2023-07-13T04:37:47;3.30;;;2.00;;
9042;SDS011;4556;49.150;8.808;2023-07-13T04:40:15;6.73;;;2.43;;
9042;SDS011;4556;49.150;8.808;2023-07-13T04:42:43;4.43;;;2.50;;
9042;SDS011;4556;49.150;8.808;2023-07-13T04:45:10;3.23;;;2.30;;
9042;SDS011;4556;49.150;8.808;2023-07-13T04:47:39;5.40;;;2.50;;
9042;SDS011;4556;49.150;8.808;2023-07-13T04:50:07;5.53;;;2.60;;
9042;SDS011;4556;49.150;8.808;2023-07-13T04:52:35;3.83;;;2.60;;
9042;SDS011;4556;49.150;8.808;2023-07-13T04:55:03;5.00;;;2.70;;
9042;SDS011;4556;49.150;8.808;2023-07-13T04:57:31;4.33;;;2.60;;
9042;SDS011;4556;49.150;8.808;2023-07-13T04:59:58;2.43;;;2.10;;
9042;SDS011;4556;49.150;8.808;2023-07-13T05:02:26;4.53;;;3.03;;
9042;SDS011;4556;49.150;8.808;2023-07-13T05:04:54;4.33;;;3.10;;
9042;SDS011;4556;49.150;8.808;2023-07-13T05:07:21;2.87;;;2.57;;
9042;SDS011;4556;49.150;8.808;2023-07-13T05:09:49;4.30;;;2.80;;
9042;SDS011;4556;49.150;8.808;2023-07-13T05:12:16;4.20;;;3.13;;
9042;SDS011;4556;49.150;8.808;2023-07-13T05:14:43;4.27;;;2.60;;
9042;SDS011;4556;49.150;8.808;2023-07-13T05:17:10;4.93;;;2.50;;
9042;SDS011;4556;49.150;8.808;2023-07-13T05:19:37;5.67;;;2.97;;
9042;SDS011;4556;49.150;8.808;2023-07-13T05:22:05;3.70;;;2.17;;
9042;SDS011;4556;49.150;8.808;2023-07-13T05:24:33;5.20;;;2.30;;
9042;SDS011;4556;49.150;8.808;2023-07-13T05:27:00;3.00;;;2.00;;
9042;SDS011;4556;49.150;8.808;2023-07-13T05:29:27;5.20;;;2.00;;
9042;SDS011;4556;49.150;8.808;2023-07-13T05:31:54;6.07;;;2.20;;
9042;SDS011;4556;49.150;8.808;2023-07-13T05:34:22;3.67;;;1.77;;
9042;SDS011;4556;49.150;8.808;2023-07-13T05:36:49;5.40;;;1.93;;
9042;SDS011;4556;49.150;8.808;2023-07-13T05:39:17;3.00;;;2.37;;
9042;SDS011;4556;49.150;8.808;2023-07-13T05:41:44;8.40;;;2.17;;
9042;SDS011;4556;49.150;8.808;2023-07-13T05:44:11;3.50;;;1.90;;
9042;SDS011;4556;49.150;8.808;2023-07-13T05:46:38;6.63;;;1.90;;
9042;SDS011;4556;49.150;8.808;2023-07-13T05:49:05;5.07;;;2.47;;
9042;SDS011;4556;49.150;8.808;2023-07-13T05:51:32;4.13;;;1.90;;
9042;SDS011;4556;49.150;8.808;2023-07-13T05:53:58;3.87;;;1.77;;
9042;SDS011;4556;49.150;8.808;2023-07-13T05:56:27;2.93;;;1.77;;
9042;SDS011;4556;49.150;8.808;2023-07-13T05:58:55;1.70;;;1.23;;
9042;SDS011;4556;49.150;8.808;2023-07-13T06:01:22;3.17;;;2.00;;
9042;SDS011;4556;49.150;8.808;2023-07-13T06:03:49;2.53;;;1.57;;
9042;SDS011;4556;49.150;8.808;2023-07-13T06:06:16;4.53;;;1.80;;
9042;SDS011;4556;49.150;8.808;2023-07-13T06:08:45;2.87;;;1.77;;
9042;SDS011;4556;49.150;8.808;2023-07-13T06:11:12;2.93;;;1.70;;
9042;SDS011;4556;49.150;8.808;2023-07-13T06:13:43;2.73;;;1.60;;
9042;SDS011;4556;49.150;8.808;2023-07-13T06:16:10;4.33;;;1.80;;
9042;SDS011;4556;49.150;8.808;2023-07-13T06:18:37;3.37;;;1.80;;
9042;SDS011;4556;49.150;8.808;2023-07-13T06:21:06;4.43;;;1.97;;
9042;SDS011;4556;49.150;8.808;2023-07-13T06:23:33;3.23;;;1.60;;
9042;SDS011;4556;49.150;8.808;2023-07-13T06:26:01;3.53;;;1.53;;
9042;SDS011;4556;49.150;8.808;2023-07-13T06:28:28;3.63;;;1.43;;
9042;SDS011;4556;49.150;8.808;2023-07-13T06:30:56;4.33;;;1.70;;
9042;SDS011;4556;49.150;8.808;2023-07-13T06:33:23;2.33;;;1.73;;
9042;SDS011;4556;49.150;8.808;2023-07-13T06:35:50;5.17;;;1.70;;
9042;SDS011;4556;49.150;8.808;2023-07-13T06:38:17;3.40;;;1.37;;
9042;SDS011;4556;49.150;8.808;2023-07-13T06:40:44;2.80;;;1.53;;
9042;SDS011;4556;49.150;8.808;2023-07-13T06:43:11;3.70;;;1.57;;
9042;SDS011;4556;49.150;8.808;2023-07-13T06:48:08;2.40;;;1.40;;
9042;SDS011;4556;49.150;8.808;2023-07-13T06:50:35;3.33;;;1.80;;
9042;SDS011;4556;49.150;8.808;2023-07-13T06:53:03;3.37;;;1.50;;
9042;SDS011;4556;49.150;8.808;2023-07-13T06:55:29;2.33;;;1.20;;
9042;SDS011;4556;49.150;8.808;2023-07-13T06:57:57;2.57;;;1.40;;
9042;SDS011;4556;49.150;8.808;2023-07-13T07:00:24;2.67;;;1.40;;
9042;SDS011;4556;49.150;8.808;2023-07-13T07:02:51;3.30;;;1.40;;
9042;SDS011;4556;49.150;8.808;2023-07-13T07:05:19;4.87;;;1.50;;
9042;SDS011;4556;49.150;8.808;2023-07-13T07:07:47;3.10;;;1.67;;
9042;SDS011;4556;49.150;8.808;2023-07-13T07:10:14;2.07;;;1.40;;
9042;SDS011;4556;49.150;8.808;2023-07-13T07:12:41;2.63;;;1.27;;
9042;SDS011;4556;49.150;8.808;2023-07-13T07:15:08;2.53;;;1.23;;
9042;SDS011;4556;49.150;8.808;2023-07-13T07:17:35;3.23;;;1.40;;
9042;SDS011;4556;49.150;8.808;2023-07-13T07:20:03;2.20;;;1.50;;
9042;SDS011;4556;49.150;8.808;2023-07-13T07:22:32;3.47;;;1.33;;
9042;SDS011;4556;49.150;8.808;2023-07-13T07:24:59;3.67;;;1.50;;
9042;SDS011;4556;49.150;8.808;2023-07-13T07:27:26;1.80;;;1.30;;
9042;SDS011;4556;49.150;8.808;2023-07-13T07:29:53;3.53;;;1.10;;
9042;SDS011;4556;49.150;8.808;2023-07-13T07:32:20;3.90;;;1.37;;
9042;SDS011;4556;49.150;8.808;2023-07-13T07:34:47;2.20;;;1.40;;
9042;SDS011;4556;49.150;8.808;2023-07-13T07:37:14;1.90;;;1.20;;
9042;SDS011;4556;49.150;8.808;2023-07-13T07:39:42;3.20;;;1.07;;
9042;SDS011;4556;49.150;8.808;2023-07-13T07:42:10;3.33;;;1.17;;
9042;SDS011;4556;49.150;8.808;2023-07-13T07:44:37;3.63;;;1.23;;
9042;SDS011;4556;49.150;8.808;2023-07-13T07:47:05;2.73;;;1.17;;
9042;SDS011;4556;49.150;8.808;2023-07-13T07:49:33;2.80;;;1.20;;
9042;SDS011;4556;49.150;8.808;2023-07-13T07:52:00;3.33;;;1.00;;
9042;SDS011;4556;49.150;8.808;2023-07-13T07:54:27;2.27;;;1.20;;
9042;SDS011;4556;49.150;8.808;2023-07-13T07:56:56;3.20;;;1.30;;
9042;SDS011;4556;49.150;8.808;2023-07-13T07:59:23;3.47;;;1.00;;
9042;SDS011;4556;49.150;8.808;2023-07-13T08:01:49;2.17;;;0.90;;
9042;SDS011;4556;49.150;8.808;2023-07-13T08:04:16;3.63;;;1.13;;
9042;SDS011;4556;49.150;8.808;2023-07-13T08:06:43;3.13;;;1.00;;
9042;SDS011;4556;49.150;8.808;2023-07-13T08:09:10;2.90;;;1.37;;
9042;SDS011;4556;49.150;8.808;2023-07-13T08:11:56;3.37;;;1.17;;
9042;SDS011;4556;49.150;8.808;2023-07-13T08:14:23;4.10;;;1.40;;
9042;SDS011;4556;49.150;8.808;2023-07-13T08:16:50;2.20;;;1.13;;
9042;SDS011;4556;49.150;8.808;2023-07-13T08:19:17;4.37;;;1.17;;
9042;SDS011;4556;49.150;8.808;2023-07-13T08:21:44;2.00;;;1.20;;
9042;SDS011;4556;49.150;8.808;2023-07-13T08:24:13;3.87;;;1.33;;
9042;SDS011;4556;49.150;8.808;2023-07-13T08:26:40;3.70;;;1.33;;
9042;SDS011;4556;49.150;8.808;2023-07-13T08:29:08;3.27;;;1.30;;
9042;SDS011;4556;49.150;8.808;2023-07-13T08:31:35;2.03;;;1.10;;
9042;SDS011;4556;49.150;8.808;2023-07-13T08:34:02;1.97;;;1.17;;
9042;SDS011;4556;49.150;8.808;2023-07-13T08:36:29;2.87;;;1.20;;
9042;SDS011;4556;49.150;8.808;2023-07-13T08:38:56;3.80;;;1.37;;
9042;SDS011;4556;49.150;8.808;2023-07-13T08:41:24;6.20;;;1.13;;
9042;SDS011;4556;49.150;8.808;2023-07-13T08:43:51;3.63;;;1.30;;
9042;SDS011;4556;49.150;8.808;2023-07-13T08:46:25;3.00;;;1.30;;
9042;SDS011;4556;49.150;8.808;2023-07-13T08:48:56;2.03;;;1.10;;
9042;SDS011;4556;49.150;8.808;2023-07-13T08:51:30;2.13;;;1.10;;
9042;SDS011;4556;49.150;8.808;2023-07-13T08:54:03;4.13;;;1.30;;
9042;SDS011;4556;49.150;8.808;2023-07-13T08:56:36;3.63;;;1.50;;
9042;SDS011;4556;49.150;8.808;2023-07-13T08:59:05;2.73;;;1.03;;
9042;SDS011;4556;49.150;8.808;2023-07-13T09:01:44;2.70;;;1.20;;
9042;SDS011;4556;49.150;8.808;2023-07-13T09:04:18;4.33;;;1.20;;
9042;SDS011;4556;49.150;8.808;2023-07-13T09:06:49;2.80;;;1.40;;
9042;SDS011;4556;49.150;8.808;2023-07-13T09:09:26;3.73;;;1.27;;
9042;SDS011;4556;49.150;8.808;2023-07-13T09:12:02;3.87;;;1.00;;
9042;SDS011;4556;49.150;8.808;2023-07-13T09:14:42;4.40;;;1.20;;
9042;SDS011;4556;49.150;8.808;2023-07-13T09:17:14;4.13;;;1.40;;
9042;SDS011;4556;49.150;8.808;2023-07-13T09:19:45;2.10;;;0.90;;
9042;SDS011;4556;49.150;8.808;2023-07-13T09:22:16;2.73;;;1.00;;
9042;SDS011;4556;49.150;8.808;2023-07-13T09:24:49;4.20;;;1.17;;
9042;SDS011;4556;49.150;8.808;2023-07-13T09:27:27;3.17;;;1.20;;
9042;SDS011;4556;49.150;8.808;2023-07-13T09:30:00;3.20;;;0.90;;
9042;SDS011;4556;49.150;8.808;2023-07-13T09:32:38;3.90;;;1.00;;
9042;SDS011;4556;49.150;8.808;2023-07-13T09:35:09;2.43;;;0.93;;
9042;SDS011;4556;49.150;8.808;2023-07-13T09:37:37;3.53;;;1.20;;
9042;SDS011;4556;49.150;8.808;2023-07-13T09:40:08;2.37;;;0.90;;
9042;SDS011;4556;49.150;8.808;2023-07-13T09:42:43;2.60;;;1.13;;
9042;SDS011;4556;49.150;8.808;2023-07-13T09:45:10;6.67;;;1.10;;
9042;SDS011;4556;49.150;8.808;2023-07-13T09:47:44;6.00;;;1.10;;
9042;SDS011;4556;49.150;8.808;2023-07-13T09:50:14;1.27;;;0.70;;
9042;SDS011;4556;49.150;8.808;2023-07-13T09:52:43;3.73;;;1.07;;
9042;SDS011;4556;49.150;8.808;2023-07-13T09:55:22;3.13;;;1.10;;
9042;SDS011;4556;49.150;8.808;2023-07-13T09:57:51;2.38;;;1.13;;
9042;SDS011;4556;49.150;8.808;2023-07-13T10:00:22;3.22;;;1.10;;
9042;SDS011;4556;49.150;8.808;2023-07-13T10:03:03;2.53;;;0.80;;
9042;SDS011;4556;49.150;8.808;2023-07-13T10:05:40;2.88;;;0.98;;
9042;SDS011;4556;49.150;8.808;2023-07-13T10:08:18;3.80;;;1.13;;
9042;SDS011;4556;49.150;8.808;2023-07-13T10:10:54;1.92;;;0.95;;
9042;SDS011;4556;49.150;8.808;2023-07-13T10:13:32;1.73;;;0.90;;
9042;SDS011;4556;49.150;8.808;2023-07-13T10:16:01;4.60;;;1.00;;
9042;SDS011;4556;49.150;8.808;2023-07-13T10:18:38;2.83;;;1.00;;
9042;SDS011;4556;49.150;8.808;2023-07-13T10:21:13;3.57;;;1.10;;
9042;SDS011;4556;49.150;8.808;2023-07-13T10:23:43;2.20;;;0.97;;
9042;SDS011;4556;49.150;8.808;2023-07-13T10:26:19;3.90;;;1.13;;
9042;SDS011;4556;49.150;8.808;2023-07-13T10:29:00;3.13;;;1.10;;
9042;SDS011;4556;49.150;8.808;2023-07-13T10:31:32;5.57;;;1.20;;
9042;SDS011;4556;49.150;8.808;2023-07-13T10:34:02;2.33;;;1.20;;
9042;SDS011;4556;49.150;8.808;2023-07-13T10:36:31;3.27;;;0.93;;
9042;SDS011;4556;49.150;8.808;2023-07-13T10:39:06;2.97;;;1.20;;
9042;SDS011;4556;49.150;8.808;2023-07-13T10:41:39;1.80;;;1.20;;
9042;SDS011;4556;49.150;8.808;2023-07-13T10:44:23;5.93;;;1.03;;
9042;SDS011;4556;49.150;8.808;2023-07-13T10:46:55;2.97;;;0.97;;
9042;SDS011;4556;49.150;8.808;2023-07-13T10:49:28;2.77;;;0.93;;
9042;SDS011;4556;49.150;8.808;2023-07-13T10:51:57;3.63;;;1.20;;
9042;SDS011;4556;49.150;8.808;2023-07-13T10:54:26;3.33;;;0.90;;
9042;SDS011;4556;49.150;8.808;2023-07-13T11:00:12;2.03;;;0.83;;
9042;SDS011;4556;49.150;8.808;2023-07-13T11:02:42;3.47;;;1.20;;
9042;SDS011;4556;49.150;8.808;2023-07-13T11:05:25;1.30;;;0.82;;
9042;SDS011;4556;49.150;8.808;2023-07-13T11:08:16;2.90;;;0.80;;
9042;SDS011;4556;49.150;8.808;2023-07-13T11:10:51;3.33;;;0.90;;
9042;SDS011;4556;49.150;8.808;2023-07-13T11:13:39;1.95;;;0.88;;
9042;SDS011;4556;49.150;8.808;2023-07-13T11:16:37;3.00;;;1.10;;
9042;SDS011;4556;49.150;8.808;2023-07-13T11:22:20;2.20;;;0.90;;
9042;SDS011;4556;49.150;8.808;2023-07-13T11:24:58;3.25;;;0.90;;
9042;SDS011;4556;49.150;8.808;2023-07-13T11:27:49;1.80;;;1.00;;
9042;SDS011;4556;49.150;8.808;2023-07-13T11:30:25;3.97;;;1.30;;
9042;SDS011;4556;49.150;8.808;2023-07-13T11:33:07;1.97;;;1.03;;
9042;SDS011;4556;49.150;8.808;2023-07-13T11:35:42;3.23;;;1.13;;
9042;SDS011;4556;49.150;8.808;2023-07-13T11:38:15;3.00;;;1.30;;
9042;SDS011;4556;49.150;8.808;2023-07-13T11:40:45;2.27;;;0.80;;
9042;SDS011;4556;49.150;8.808;2023-07-13T11:43:14;2.97;;;0.90;;
9042;SDS011;4556;49.150;8.808;2023-07-13T11:45:42;5.23;;;1.47;;
9042;SDS011;4556;49.150;8.808;2023-07-13T11:48:20;3.40;;;1.10;;
9042;SDS011;4556;49.150;8.808;2023-07-13T11:50:57;2.97;;;1.10;;
9042;SDS011;4556;49.150;8.808;2023-07-13T11:53:56;4.03;;;1.10;;
9042;SDS011;4556;49.150;8.808;2023-07-13T11:56:42;2.70;;;1.10;;
9042;SDS011;4556;49.150;8.808;2023-07-13T11:59:10;2.03;;;1.00;;
9042;SDS011;4556;49.150;8.808;2023-07-13T12:01:41;3.17;;;1.20;;
9042;SDS011;4556;49.150;8.808;2023-07-13T12:04:13;3.67;;;1.23;;
9042;SDS011;4556;49.150;8.808;2023-07-13T12:06:49;2.57;;;0.97;;
9042;SDS011;4556;49.150;8.808;2023-07-13T12:09:27;2.93;;;1.20;;
9042;SDS011;4556;49.150;8.808;2023-07-13T12:11:56;3.97;;;1.07;;
9042;SDS011;4556;49.150;8.808;2023-07-13T12:14:33;3.80;;;1.20;;
9042;SDS011;4556;49.150;8.808;2023-07-13T12:17:01;1.97;;;0.93;;
9042;SDS011;4556;49.150;8.808;2023-07-13T12:19:31;2.60;;;1.23;;
9042;SDS011;4556;49.150;8.808;2023-07-13T12:21:59;2.70;;;1.10;;
9042;SDS011;4556;49.150;8.808;2023-07-13T12:24:28;1.53;;;1.10;;
9042;SDS011;4556;49.150;8.808;2023-07-13T12:26:59;1.10;;;0.90;;
9042;SDS011;4556;49.150;8.808;2023-07-13T12:29:28;4.00;;;1.20;;
9042;SDS011;4556;49.150;8.808;2023-07-13T12:32:30;3.53;;;1.13;;
9042;SDS011;4556;49.150;8.808;2023-07-13T12:35:07;3.30;;;1.13;;
9042;SDS011;4556;49.150;8.808;2023-07-13T12:37:58;2.87;;;1.10;;
9042;SDS011;4556;49.150;8.808;2023-07-13T12:40:28;2.27;;;1.20;;
9042;SDS011;4556;49.150;8.808;2023-07-13T12:43:19;3.27;;;1.10;;
9042;SDS011;4556;49.150;8.808;2023-07-13T12:46:14;1.43;;;0.90;;
9042;SDS011;4556;49.150;8.808;2023-07-13T12:48:48;6.43;;;1.10;;
9042;SDS011;4556;49.150;8.808;2023-07-13T12:51:16;3.13;;;1.20;;
9042;SDS011;4556;49.150;8.808;2023-07-13T12:53:48;3.13;;;1.20;;
9042;SDS011;4556;49.150;8.808;2023-07-13T12:58:58;4.43;;;1.27;;
9042;SDS011;4556;49.150;8.808;2023-07-13T13:01:38;3.37;;;1.40;;
9042;SDS011;4556;49.150;8.808;2023-07-13T13:04:11;3.53;;;1.53;;
9042;SDS011;4556;49.150;8.808;2023-07-13T13:06:39;2.87;;;1.10;;
9042;SDS011;4556;49.150;8.808;2023-07-13T13:09:10;2.47;;;1.20;;
9042;SDS011;4556;49.150;8.808;2023-07-13T13:11:51;3.37;;;1.00;;
9042;SDS011;4556;49.150;8.808;2023-07-13T13:17:37;3.33;;;0.97;;
9042;SDS011;4556;49.150;8.808;2023-07-13T13:22:30;3.80;;;1.30;;
9042;SDS011;4556;49.150;8.808;2023-07-13T13:24:57;2.30;;;1.27;;
9042;SDS011;4556;49.150;8.808;2023-07-13T13:27:26;5.10;;;1.23;;
9042;SDS011;4556;49.150;8.808;2023-07-13T13:29:55;2.60;;;1.10;;
9042;SDS011;4556;49.150;8.808;2023-07-13T13:32:24;2.53;;;1.20;;
9042;SDS011;4556;49.150;8.808;2023-07-13T13:34:51;2.13;;;1.07;;
9042;SDS011;4556;49.150;8.808;2023-07-13T13:37:19;2.10;;;0.90;;
9042;SDS011;4556;49.150;8.808;2023-07-13T13:39:59;3.73;;;1.23;;
9042;SDS011;4556;49.150;8.808;2023-07-13T13:42:27;4.27;;;1.20;;
9042;SDS011;4556;49.150;8.808;2023-07-13T13:44:55;3.33;;;1.00;;
9042;SDS011;4556;49.150;8.808;2023-07-13T13:47:27;3.07;;;1.13;;
9042;SDS011;4556;49.150;8.808;2023-07-13T13:49:58;2.80;;;1.17;;
9042;SDS011;4556;49.150;8.808;2023-07-13T13:52:28;3.47;;;1.17;;
9042;SDS011;4556;49.150;8.808;2023-07-13T13:54:55;2.87;;;1.00;;
9042;SDS011;4556;49.150;8.808;2023-07-13T13:57:23;1.57;;;0.87;;
9042;SDS011;4556;49.150;8.808;2023-07-13T13:59:55;2.60;;;0.97;;
9042;SDS011;4556;49.150;8.808;2023-07-13T14:02:23;1.30;;;0.90;;
9042;SDS011;4556;49.150;8.808;2023-07-13T14:04:53;4.30;;;1.10;;
9042;SDS011;4556;49.150;8.808;2023-07-13T14:07:22;2.97;;;1.13;;
9042;SDS011;4556;49.150;8.808;2023-07-13T14:09:51;1.47;;;0.90;;
9042;SDS011;4556;49.150;8.808;2023-07-13T14:12:18;2.70;;;0.90;;
9042;SDS011;4556;49.150;8.808;2023-07-13T14:14:56;2.60;;;1.03;;
9042;SDS011;4556;49.150;8.808;2023-07-13T14:17:28;2.60;;;0.90;;
9042;SDS011;4556;49.150;8.808;2023-07-13T14:20:00;2.63;;;1.13;;
9042;SDS011;4556;49.150;8.808;2023-07-13T14:22:29;3.90;;;1.07;;
9042;SDS011;4556;49.150;8.808;2023-07-13T14:24:59;2.90;;;1.00;;
9042;SDS011;4556;49.150;8.808;2023-07-13T14:27:31;3.00;;;0.97;;
9042;SDS011;4556;49.150;8.808;2023-07-13T14:29:59;3.03;;;0.93;;
9042;SDS011;4556;49.150;8.808;2023-07-13T14:32:28;3.20;;;1.00;;
9042;SDS011;4556;49.150;8.808;2023-07-13T14:35:04;2.37;;;0.87;;
9042;SDS011;4556;49.150;8.808;2023-07-13T14:37:32;2.20;;;1.00;;
9042;SDS011;4556;49.150;8.808;2023-07-13T14:40:00;4.37;;;1.03;;
9042;SDS011;4556;49.150;8.808;2023-07-13T14:42:28;2.80;;;0.90;;
9042;SDS011;4556;49.150;8.808;2023-07-13T14:44:55;3.33;;;0.90;;
9042;SDS011;4556;49.150;8.808;2023-07-13T14:47:23;3.57;;;0.90;;
9042;SDS011;4556;49.150;8.808;2023-07-13T14:49:50;1.53;;;0.83;;
9042;SDS011;4556;49.150;8.808;2023-07-13T14:52:22;4.77;;;0.80;;
9042;SDS011;4556;49.150;8.808;2023-07-13T14:54:51;3.73;;;0.97;;
9042;SDS011;4556;49.150;8.808;2023-07-13T14:57:19;3.47;;;1.10;;
9042;SDS011;4556;49.150;8.808;2023-07-13T14:59:46;1.57;;;0.70;;
9042;SDS011;4556;49.150;8.808;2023-07-13T15:02:15;1.80;;;1.10;;
9042;SDS011;4556;49.150;8.808;2023-07-13T15:04:44;2.13;;;0.80;;
9042;SDS011;4556;49.150;8.808;2023-07-13T15:07:12;1.87;;;0.80;;
9042;SDS011;4556;49.150;8.808;2023-07-13T15:09:43;2.33;;;0.83;;
9042;SDS011;4556;49.150;8.808;2023-07-13T15:12:10;4.57;;;1.10;;
9042;SDS011;4556;49.150;8.808;2023-07-13T15:14:37;2.63;;;0.80;;
9042;SDS011;4556;49.150;8.808;2023-07-13T15:17:04;1.93;;;1.00;;
9042;SDS011;4556;49.150;8.808;2023-07-13T15:19:42;2.20;;;1.10;;
9042;SDS011;4556;49.150;8.808;2023-07-13T15:22:10;3.17;;;0.80;;
9042;SDS011;4556;49.150;8.808;2023-07-13T15:24:37;2.30;;;0.97;;
9042;SDS011;4556;49.150;8.808;2023-07-13T15:27:07;2.17;;;1.00;;
9042;SDS011;4556;49.150;8.808;2023-07-13T15:29:37;1.67;;;0.87;;
9042;SDS011;4556;49.150;8.808;2023-07-13T15:32:09;2.53;;;0.90;;
9042;SDS011;4556;49.150;8.808;2023-07-13T15:34:40;2.27;;;0.90;;
9042;SDS011;4556;49.150;8.808;2023-07-13T15:37:13;1.70;;;0.90;;
9042;SDS011;4556;49.150;8.808;2023-07-13T15:39:41;2.30;;;1.10;;
9042;SDS011;4556;49.150;8.808;2023-07-13T15:42:08;2.80;;;1.00;;
9042;SDS011;4556;49.150;8.808;2023-07-13T15:44:40;2.40;;;1.00;;
9042;SDS011;4556;49.150;8.808;2023-07-13T15:47:08;2.47;;;1.00;;
9042;SDS011;4556;49.150;8.808;2023-07-13T15:49:44;4.90;;;1.10;;